地図

経路データ

SID SEASON NUMBER BASIN SUBBASIN NAME ISO_TIME NATURE LAT LON WMO_WIND WMO_PRES WMO_AGENCY TRACK_TYPE DIST2LAND LANDFALL IFLAG USA_AGENCY USA_ATCF_ID USA_LAT USA_LON USA_RECORD USA_STATUS USA_WIND USA_PRES USA_SSHS USA_R34_NE USA_R34_SE USA_R34_SW USA_R34_NW USA_R50_NE USA_R50_SE USA_R50_SW USA_R50_NW USA_R64_NE USA_R64_SE USA_R64_SW USA_R64_NW USA_POCI USA_ROCI USA_RMW USA_EYE TOKYO_LAT TOKYO_LON TOKYO_GRADE TOKYO_WIND TOKYO_PRES TOKYO_R50_DIR TOKYO_R50_LONG TOKYO_R50_SHORT TOKYO_R30_DIR TOKYO_R30_LONG TOKYO_R30_SHORT TOKYO_LAND CMA_LAT CMA_LON CMA_CAT CMA_WIND CMA_PRES HKO_LAT HKO_LON HKO_CAT HKO_WIND HKO_PRES NEWDELHI_LAT NEWDELHI_LON NEWDELHI_GRADE NEWDELHI_WIND NEWDELHI_PRES NEWDELHI_CI NEWDELHI_DP NEWDELHI_POCI REUNION_LAT REUNION_LON REUNION_TYPE REUNION_WIND REUNION_PRES REUNION_TNUM REUNION_CI REUNION_RMW REUNION_R34_NE REUNION_R34_SE REUNION_R34_SW REUNION_R34_NW REUNION_R50_NE REUNION_R50_SE REUNION_R50_SW REUNION_R50_NW REUNION_R64_NE REUNION_R64_SE REUNION_R64_SW REUNION_R64_NW BOM_LAT BOM_LON BOM_TYPE BOM_WIND BOM_PRES BOM_TNUM BOM_CI BOM_RMW BOM_R34_NE BOM_R34_SE BOM_R34_SW BOM_R34_NW BOM_R50_NE BOM_R50_SE BOM_R50_SW BOM_R50_NW BOM_R64_NE BOM_R64_SE BOM_R64_SW BOM_R64_NW BOM_ROCI BOM_POCI BOM_EYE BOM_POS_METHOD BOM_PRES_METHOD NADI_LAT NADI_LON NADI_CAT NADI_WIND NADI_PRES WELLINGTON_LAT WELLINGTON_LON WELLINGTON_WIND WELLINGTON_PRES DS824_LAT DS824_LON DS824_STAGE DS824_WIND DS824_PRES TD9636_LAT TD9636_LON TD9636_STAGE TD9636_WIND TD9636_PRES TD9635_LAT TD9635_LON TD9635_WIND TD9635_PRES TD9635_ROCI NEUMANN_LAT NEUMANN_LON NEUMANN_CLASS NEUMANN_WIND NEUMANN_PRES MLC_LAT MLC_LON MLC_CLASS MLC_WIND MLC_PRES USA_GUST BOM_GUST BOM_GUST_PER REUNION_GUST REUNION_GUST_PER USA_SEAHGT USA_SEARAD_NE USA_SEARAD_SE USA_SEARAD_SW USA_SEARAD_NW STORM_SPEED STORM_DIR
1949246N24271 1949 68 NA GM NOT_NAMED 1949-09-03 06:00:00 TS 23.7000 -89.0000 35 hurdat_atl main 249 249 O_____________ hurdat_atl AL051949 23.7000 -89.0000 TS 35 0 5 7
1949246N24271 1949 68 NA GM NOT_NAMED 1949-09-03 09:00:00 TS 23.9325 -88.9750 main 271 271 P_____________ AL051949 23.9325 -88.9750 TS 37 0 5 2
1949246N24271 1949 68 NA GM NOT_NAMED 1949-09-03 12:00:00 TS 24.2000 -89.0000 40 hurdat_atl main 304 304 O_____________ hurdat_atl AL051949 24.2000 -89.0000 TS 40 0 6 348
1949246N24271 1949 68 NA GM NOT_NAMED 1949-09-03 15:00:00 TS 24.5400 -89.1127 main 339 339 P_____________ AL051949 24.5400 -89.1127 TS 42 0 8 341
1949246N24271 1949 68 NA GM NOT_NAMED 1949-09-03 18:00:00 TS 25.0000 -89.3000 45 hurdat_atl main 397 381 O_____________ hurdat_atl AL051949 25.0000 -89.3000 TS 45 0 11 340
1949246N24271 1949 68 NA GM NOT_NAMED 1949-09-03 21:00:00 TS 25.5976 -89.5423 main 381 309 P_____________ AL051949 25.5976 -89.5423 TS 47 0 14 341
1949246N24271 1949 68 NA GM NOT_NAMED 1949-09-04 00:00:00 TS 26.3000 -89.8000 50 hurdat_atl main 309 234 O_____________ hurdat_atl AL051949 26.3000 -89.8000 TS 50 0 15 344
1949246N24271 1949 68 NA GM NOT_NAMED 1949-09-04 03:00:00 TS 27.0349 -90.0078 main 234 145 P_____________ AL051949 27.0349 -90.0078 TS 50 0 15 347
1949246N24271 1949 68 NA GM NOT_NAMED 1949-09-04 06:00:00 TS 27.8000 -90.2000 50 hurdat_atl main 145 69 O_____________ hurdat_atl AL051949 27.8000 -90.2000 TS 50 0 16 347
1949246N24271 1949 68 NA GM NOT_NAMED 1949-09-04 09:00:00 TS 28.5875 -90.4148 main 59 0 P_____________ AL051949 28.5875 -90.4148 TS 50 0 15 347
1949246N24271 1949 68 NA NA NOT_NAMED 1949-09-04 12:00:00 TS 29.3000 -90.6000 50 hurdat_atl main 0 0 O_____________ hurdat_atl AL051949 29.3000 -90.6000 L TS 50 0 13 347
1949246N24271 1949 68 NA NA NOT_NAMED 1949-09-04 15:00:00 TS 29.8374 -90.7451 main 0 0 P_____________ AL051949 29.8374 -90.7451 TS 45 0 10 350
1949246N24271 1949 68 NA NA NOT_NAMED 1949-09-04 18:00:00 TS 30.3000 -90.8000 40 hurdat_atl main 0 0 O_____________ hurdat_atl AL051949 30.3000 -90.8000 TS 40 0 10 359
1949246N24271 1949 68 NA NA NOT_NAMED 1949-09-04 21:00:00 TS 30.7999 -90.7525 main 0 0 P_____________ AL051949 30.7999 -90.7525 TS 37 0 10 10
1949246N24271 1949 68 NA NA NOT_NAMED 1949-09-05 00:00:00 TS 31.3000 -90.6000 35 hurdat_atl main 0 0 O_____________ hurdat_atl AL051949 31.3000 -90.6000 TS 35 0 10 17
1949246N24271 1949 68 NA NA NOT_NAMED 1949-09-05 03:00:00 TS 31.7925 -90.3873 main 0 0 P_____________ AL051949 31.7925 -90.3873 TS 32 -1 11 23
1949246N24271 1949 68 NA NA NOT_NAMED 1949-09-05 06:00:00 TS 32.3000 -90.1000 30 hurdat_atl main 0 0 O_____________ hurdat_atl AL051949 32.3000 -90.1000 TD 30 -1 12 27
1949246N24271 1949 68 NA NA NOT_NAMED 1949-09-05 09:00:00 TS 32.8199 -89.7793 main 0 0 P_____________ AL051949 32.8199 -89.7793 TD 27 -1 13 28
1949246N24271 1949 68 NA NA NOT_NAMED 1949-09-05 12:00:00 TS 33.4000 -89.4000 25 hurdat_atl main 0 0 O_____________ hurdat_atl AL051949 33.4000 -89.4000 TD 25 -1 14 28
1949246N24271 1949 68 NA NA NOT_NAMED 1949-09-05 15:00:00 TS 34.0729 -88.9669 main 0 0 P_____________ AL051949 34.0729 -88.9669 TD 22 -1 16 28
1949246N24271 1949 68 NA NA NOT_NAMED 1949-09-05 18:00:00 TS 34.8000 -88.5000 20 hurdat_atl main 0 O_____________ hurdat_atl AL051949 34.8000 -88.5000 TD 20 -1 16 28

IBTrACS Databaseについて

本データベースは、米国NOAAが公開する1842年以降の世界の熱帯低気圧のベストトラックデータアーカイブInternational Best Track Archive for Climate Stewardship (IBTrACS)を、ウェブで閲覧しやすい形式に変換したものです。

最終更新日:2021-11-26